Terminal Aerodrome Forecast
Issued by NWS

Home | Current Version | Previous Version | Text Only | Print | Product List | Glossary On
Versions: 1 2 3 4 5 6 7 8 9 10 11 12 13 14 15 16 17 18 19
000
FTUS43 KDLH 291500 AAC
TAFBRD
TAF AMD
KBRD 291504Z 2915/3012 31023G27KT P6SM -RA BKN011 OVC016
      TEMPO 2915/2916 31011KT 3SM RA BR BKN008
     FM291700 32016G30KT P6SM BKN040
     FM300000 30012KT P6SM BKN040=

USA.gov is the U.S. government's official web portal to all federal, state and local government web resources and services.